createdAt,value
2023-08-11T00:00:40.897Z,16.58
2023-08-11T00:02:12.678Z,16.50
2023-08-11T00:03:47.097Z,16.57
2023-08-11T00:05:20.665Z,16.46
2023-08-11T00:06:52.494Z,16.38
2023-08-11T00:08:24.208Z,16.12
2023-08-11T00:09:56.253Z,16.12
2023-08-11T00:11:27.894Z,16.14
2023-08-11T00:12:59.693Z,16.34
2023-08-11T00:14:31.464Z,16.03
2023-08-11T00:16:04.573Z,16.16
2023-08-11T00:17:36.375Z,16.27
2023-08-11T00:19:08.405Z,16.12
2023-08-11T00:20:41.747Z,15.99
2023-08-11T00:22:13.385Z,15.80
2023-08-11T00:23:45.179Z,15.99
2023-08-11T00:25:16.907Z,16.17
2023-08-11T00:26:48.767Z,16.31
2023-08-11T00:28:20.409Z,16.01
2023-08-11T00:29:52.406Z,15.94
2023-08-11T00:31:24.122Z,16.04
2023-08-11T00:32:56.012Z,16.08
2023-08-11T00:34:27.858Z,15.98
2023-08-11T00:36:00.893Z,15.92
2023-08-11T00:37:32.719Z,15.89
2023-08-11T00:39:04.648Z,15.90
2023-08-11T00:40:37.781Z,15.99
2023-08-11T00:42:09.458Z,15.91
2023-08-11T00:43:41.127Z,16.05
2023-08-11T00:45:12.767Z,15.85
2023-08-11T00:46:44.710Z,15.97
2023-08-11T00:48:16.809Z,15.87
2023-08-11T00:49:50.712Z,15.87
2023-08-11T00:51:25.714Z,15.90
2023-08-11T00:53:02.352Z,15.77
2023-08-11T00:54:34.160Z,15.94
2023-08-11T00:56:05.845Z,15.86
2023-08-11T00:57:38.274Z,15.76
2023-08-11T00:59:11.047Z,15.71
2023-08-11T01:00:42.800Z,15.73
2023-08-11T01:02:14.499Z,15.77
2023-08-11T01:03:48.803Z,15.69
2023-08-11T01:05:20.691Z,15.83
2023-08-11T01:06:57.822Z,15.67
2023-08-11T01:08:31.279Z,15.67
2023-08-11T01:10:05.870Z,15.79
2023-08-11T01:11:39.585Z,15.70
2023-08-11T01:13:14.330Z,15.64
2023-08-11T01:14:48.972Z,15.39
2023-08-11T01:16:21.335Z,15.37
2023-08-11T01:17:53.016Z,15.58
2023-08-11T01:19:29.777Z,15.60
2023-08-11T01:21:04.577Z,15.57
2023-08-11T01:22:38.098Z,15.69
2023-08-11T01:24:11.790Z,15.77
2023-08-11T01:25:43.466Z,15.59
2023-08-11T01:27:15.214Z,15.37
2023-08-11T01:28:48.703Z,15.50
2023-08-11T01:30:20.546Z,15.35
2023-08-11T01:31:52.361Z,15.23
2023-08-11T01:33:24.073Z,15.45
2023-08-11T01:34:55.908Z,15.48
2023-08-11T01:36:27.971Z,15.44
2023-08-11T01:38:00.448Z,15.40
2023-08-11T01:39:34.203Z,15.57
2023-08-11T01:41:06.249Z,15.57
2023-08-11T01:42:46.579Z,15.43
2023-08-11T01:44:22.373Z,15.46
2023-08-11T01:45:54.248Z,15.40
2023-08-11T01:47:25.913Z,15.43
2023-08-11T01:48:57.605Z,15.44
2023-08-11T01:50:29.636Z,15.39
2023-08-11T01:52:01.398Z,15.48
2023-08-11T01:53:33.065Z,15.51
2023-08-11T01:55:07.531Z,15.50
2023-08-11T01:56:39.325Z,15.67
2023-08-11T01:58:10.980Z,15.52
2023-08-11T01:59:42.766Z,15.43
2023-08-11T02:01:14.500Z,15.52
2023-08-11T02:02:46.535Z,15.48
2023-08-11T02:04:19.081Z,15.39
2023-08-11T02:05:50.702Z,15.35
2023-08-11T02:07:22.329Z,15.49
2023-08-11T02:08:53.982Z,15.57
2023-08-11T02:10:27.033Z,15.54
2023-08-11T02:11:58.743Z,15.45
2023-08-11T02:13:31.177Z,15.38
2023-08-11T02:15:02.841Z,15.27
2023-08-11T02:16:35.033Z,15.36
2023-08-11T02:18:06.944Z,15.42
2023-08-11T02:19:38.618Z,15.49
2023-08-11T02:21:11.380Z,15.50
2023-08-11T02:22:43.083Z,15.52
2023-08-11T02:24:14.777Z,15.33
2023-08-11T02:25:47.947Z,15.27
2023-08-11T02:27:19.575Z,15.22
2023-08-11T02:28:51.524Z,15.15
2023-08-11T02:30:23.656Z,15.09
2023-08-11T02:31:55.407Z,15.19
2023-08-11T02:33:27.361Z,15.09
2023-08-11T02:34:59.269Z,15.07
2023-08-11T02:36:31.059Z,15.23
2023-08-11T02:38:02.883Z,15.29
2023-08-11T02:39:34.646Z,15.32
2023-08-11T02:41:07.875Z,15.30
2023-08-11T02:42:43.731Z,15.32
2023-08-11T02:44:15.450Z,15.29
2023-08-11T02:45:47.849Z,15.19
2023-08-11T02:47:19.606Z,15.29
2023-08-11T02:48:51.458Z,15.05
2023-08-11T02:50:23.185Z,15.13
2023-08-11T02:51:54.896Z,14.92
2023-08-11T02:53:27.108Z,15.04
2023-08-11T02:54:58.954Z,15.08
2023-08-11T02:56:32.446Z,14.91
2023-08-11T02:58:04.265Z,14.85
2023-08-11T02:59:36.339Z,14.71
2023-08-11T03:01:08.508Z,14.70
2023-08-11T03:02:40.711Z,14.61
2023-08-11T03:04:12.412Z,14.93
2023-08-11T03:05:44.275Z,14.83
2023-08-11T03:07:15.933Z,15.05
2023-08-11T03:08:47.569Z,14.90
2023-08-11T03:10:19.272Z,14.78
2023-08-11T03:11:52.303Z,14.98
2023-08-11T03:13:24.959Z,15.06
2023-08-11T03:14:56.700Z,15.04
2023-08-11T03:16:28.579Z,15.09
2023-08-11T03:18:00.346Z,14.93
2023-08-11T03:19:32.537Z,14.85
2023-08-11T03:21:18.578Z,14.81
2023-08-11T03:22:50.822Z,14.77
2023-08-11T03:24:22.631Z,14.94
2023-08-11T03:25:54.698Z,14.77
2023-08-11T03:27:27.806Z,14.71
2023-08-11T03:28:59.531Z,14.77
2023-08-11T03:30:31.624Z,14.68
2023-08-11T03:32:04.140Z,14.75
2023-08-11T03:33:35.778Z,14.86
2023-08-11T03:35:07.813Z,14.87
2023-08-11T03:36:39.520Z,14.87
2023-08-11T03:38:11.208Z,14.85
2023-08-11T03:39:42.849Z,14.84
2023-08-11T03:41:14.586Z,14.83
2023-08-11T03:42:47.689Z,14.90
2023-08-11T03:44:19.749Z,14.80
2023-08-11T03:45:51.420Z,14.47
2023-08-11T03:47:23.051Z,14.56
2023-08-11T03:48:54.729Z,14.58
2023-08-11T03:50:26.672Z,14.62
2023-08-11T03:51:58.486Z,14.66
2023-08-11T03:53:30.287Z,14.74
2023-08-11T03:55:02.264Z,14.82
2023-08-11T03:56:34.045Z,14.70
2023-08-11T03:58:10.664Z,14.63
2023-08-11T03:59:42.344Z,14.72
2023-08-11T04:01:14.207Z,14.66
2023-08-11T04:02:46.933Z,14.76
2023-08-11T04:04:19.144Z,14.66
2023-08-11T04:05:51.152Z,14.59
2023-08-11T04:07:22.784Z,14.52
2023-08-11T04:08:54.487Z,14.36
2023-08-11T04:10:26.208Z,14.29
2023-08-11T04:11:57.914Z,14.32
2023-08-11T04:13:31.214Z,14.50
2023-08-11T04:15:03.019Z,14.44
2023-08-11T04:16:34.658Z,14.46
2023-08-11T04:18:06.517Z,14.46
2023-08-11T04:19:38.280Z,14.41
2023-08-11T04:21:10.517Z,14.43
2023-08-11T04:22:42.316Z,14.33
2023-08-11T04:24:14.339Z,14.39
2023-08-11T04:25:46.055Z,14.48
2023-08-11T04:27:18.492Z,14.51
2023-08-11T04:28:51.554Z,14.55
2023-08-11T04:30:23.484Z,14.37
2023-08-11T04:31:55.174Z,14.27
2023-08-11T04:33:27.051Z,14.25
2023-08-11T04:34:58.850Z,14.25
2023-08-11T04:36:30.568Z,14.25
2023-08-11T04:38:02.499Z,14.40
2023-08-11T04:39:34.272Z,14.45
2023-08-11T04:41:05.920Z,14.47
2023-08-11T04:42:37.590Z,14.48
2023-08-11T04:44:10.780Z,14.56
2023-08-11T04:45:42.438Z,14.60
2023-08-11T04:47:14.076Z,14.54
2023-08-11T04:48:46.167Z,14.55
2023-08-11T04:50:18.053Z,14.51
2023-08-11T04:51:49.706Z,14.57
2023-08-11T04:53:22.459Z,14.61
2023-08-11T04:54:54.277Z,14.63
2023-08-11T04:56:25.941Z,14.63
2023-08-11T04:57:57.578Z,14.68
2023-08-11T04:59:30.745Z,14.70
2023-08-11T05:01:05.080Z,14.78
2023-08-11T05:02:36.851Z,14.74
2023-08-11T05:04:09.676Z,14.76
2023-08-11T05:05:42.424Z,14.82
2023-08-11T05:07:14.260Z,14.91
2023-08-11T05:08:46.371Z,14.94
2023-08-11T05:10:18.273Z,14.85
2023-08-11T05:11:50.395Z,14.80
2023-08-11T05:13:22.168Z,14.85
2023-08-11T05:14:55.324Z,14.91
2023-08-11T05:16:27.024Z,14.92
2023-08-11T05:17:58.763Z,14.95
2023-08-11T05:19:30.538Z,14.91
2023-08-11T05:21:02.209Z,14.90
2023-08-11T05:22:33.946Z,14.92
2023-08-11T05:24:07.043Z,14.99
2023-08-11T05:25:41.692Z,15.01
2023-08-11T05:27:15.553Z,14.98
2023-08-11T05:28:47.346Z,14.95
2023-08-11T05:30:25.468Z,15.00
2023-08-11T05:31:57.171Z,15.02
2023-08-11T05:33:29.027Z,15.07
2023-08-11T05:35:00.949Z,15.15
2023-08-11T05:36:32.826Z,15.21
2023-08-11T05:38:04.493Z,15.27
2023-08-11T05:39:38.989Z,15.27
2023-08-11T05:41:11.810Z,15.29
2023-08-11T05:42:43.768Z,15.25
2023-08-11T05:44:15.455Z,15.34
2023-08-11T05:45:48.785Z,15.34
2023-08-11T05:47:20.608Z,15.39
2023-08-11T05:48:52.348Z,15.50
2023-08-11T05:50:24.123Z,15.49
2023-08-11T05:51:55.806Z,15.60
2023-08-11T05:53:27.534Z,15.60
2023-08-11T05:54:59.191Z,15.54
2023-08-11T05:56:31.288Z,15.62
2023-08-11T05:58:03.272Z,15.76
2023-08-11T05:59:35.169Z,15.81
2023-08-11T06:01:08.228Z,15.79
2023-08-11T06:02:40.001Z,15.83
2023-08-11T06:04:11.937Z,15.84
2023-08-11T06:05:43.666Z,15.89
2023-08-11T06:07:15.699Z,15.98
2023-08-11T06:08:47.366Z,15.99
2023-08-11T06:10:19.248Z,15.99
2023-08-11T06:11:50.887Z,16.13
2023-08-11T06:13:22.945Z,16.21
2023-08-11T06:14:54.575Z,16.50
2023-08-11T06:16:27.930Z,16.41
2023-08-11T06:18:01.033Z,16.31
2023-08-11T06:19:32.856Z,16.38
2023-08-11T06:21:08.576Z,16.44
2023-08-11T06:22:40.528Z,16.67
2023-08-11T06:24:12.399Z,16.62
2023-08-11T06:25:46.525Z,16.67
2023-08-11T06:27:18.355Z,16.59
2023-08-11T06:28:50.090Z,16.65
2023-08-11T06:30:22.016Z,16.56
2023-08-11T06:31:55.277Z,16.82
2023-08-11T06:33:27.464Z,16.82
2023-08-11T06:34:59.094Z,16.78
2023-08-11T06:36:30.834Z,16.84
2023-08-11T06:38:02.559Z,16.79
2023-08-11T06:39:34.247Z,16.89
2023-08-11T06:41:06.236Z,17.02
2023-08-11T06:42:37.885Z,17.09
2023-08-11T06:44:16.081Z,17.19
2023-08-11T06:45:48.524Z,17.22
2023-08-11T06:47:22.160Z,17.26
2023-08-11T06:48:53.976Z,17.17
2023-08-11T06:50:26.031Z,17.08
2023-08-11T06:51:57.933Z,17.04
2023-08-11T06:53:29.779Z,17.22
2023-08-11T06:55:01.489Z,17.23
2023-08-11T06:56:33.528Z,17.27
2023-08-11T06:58:05.648Z,17.36
2023-08-11T06:59:37.318Z,17.50
2023-08-11T07:01:09.217Z,17.59
2023-08-11T07:02:42.328Z,17.50
2023-08-11T07:04:14.424Z,17.48
2023-08-11T07:05:46.549Z,17.58
2023-08-11T07:07:21.090Z,17.64
2023-08-11T07:08:52.725Z,17.54
2023-08-11T07:10:25.948Z,17.57
2023-08-11T07:11:57.888Z,17.71
2023-08-11T07:13:29.542Z,17.79
2023-08-11T07:15:01.464Z,17.71
2023-08-11T07:16:33.453Z,17.69
2023-08-11T07:18:06.739Z,17.70
2023-08-11T07:19:38.490Z,17.71
2023-08-11T07:21:10.458Z,17.76
2023-08-11T07:22:42.168Z,17.97
2023-08-11T07:24:13.845Z,18.01
2023-08-11T07:25:45.632Z,18.06
2023-08-11T07:27:19.476Z,18.07
2023-08-11T07:28:53.632Z,18.08
2023-08-11T07:30:25.490Z,18.09
2023-08-11T07:31:57.847Z,18.20
2023-08-11T07:33:30.984Z,18.34
2023-08-11T07:35:02.864Z,18.27
2023-08-11T07:36:37.817Z,18.31
2023-08-11T07:38:11.414Z,18.33
2023-08-11T07:39:44.266Z,18.34
2023-08-11T07:41:15.918Z,18.34
2023-08-11T07:42:47.790Z,18.36
2023-08-11T07:44:19.526Z,18.27
2023-08-11T07:45:51.240Z,18.35
2023-08-11T07:47:23.615Z,18.54
2023-08-11T07:48:56.643Z,18.52
2023-08-11T07:50:28.311Z,18.53
2023-08-11T07:52:00.135Z,18.65
2023-08-11T07:53:32.954Z,18.79
2023-08-11T07:55:05.726Z,18.73
2023-08-11T07:56:37.541Z,18.61
2023-08-11T07:58:09.309Z,18.77
2023-08-11T07:59:41.148Z,18.91
2023-08-11T08:01:12.899Z,19.01
2023-08-11T08:02:45.517Z,18.95
2023-08-11T08:04:18.863Z,19.02
2023-08-11T08:05:50.991Z,18.96
2023-08-11T08:07:22.665Z,19.19
2023-08-11T08:08:54.481Z,19.25
2023-08-11T08:10:26.359Z,19.20
2023-08-11T08:11:58.081Z,19.03
2023-08-11T08:13:30.458Z,19.18
2023-08-11T08:15:02.858Z,19.29
2023-08-11T08:16:39.973Z,19.17
2023-08-11T08:18:11.974Z,19.43
2023-08-11T08:19:46.092Z,19.68
2023-08-11T08:21:18.029Z,19.73
2023-08-11T08:22:49.990Z,19.40
2023-08-11T08:24:22.351Z,19.24
2023-08-11T08:25:54.323Z,19.41
2023-08-11T08:27:26.111Z,19.58
2023-08-11T08:28:57.778Z,19.77
2023-08-11T08:30:29.492Z,19.60
2023-08-11T08:32:01.131Z,19.79
2023-08-11T08:33:32.875Z,19.66
2023-08-11T08:35:07.638Z,19.67
2023-08-11T08:36:39.511Z,19.70
2023-08-11T08:38:11.185Z,19.71
2023-08-11T08:39:44.690Z,19.82
2023-08-11T08:41:19.565Z,20.02
2023-08-11T08:42:51.278Z,20.06
2023-08-11T08:44:22.973Z,20.06
2023-08-11T08:45:54.907Z,20.17
2023-08-11T08:47:27.602Z,20.39
2023-08-11T08:49:08.394Z,20.46
2023-08-11T08:50:41.740Z,20.37
2023-08-11T08:52:13.772Z,20.28
2023-08-11T08:53:45.501Z,20.59
2023-08-11T08:55:18.263Z,20.54
2023-08-11T08:56:50.445Z,20.68
2023-08-11T08:58:22.158Z,20.56
2023-08-11T08:59:53.799Z,20.71
2023-08-11T09:01:25.563Z,20.60
2023-08-11T09:02:57.340Z,20.73
2023-08-11T09:04:29.240Z,20.75
2023-08-11T09:06:02.505Z,21.03
2023-08-11T09:07:34.634Z,21.09
2023-08-11T09:09:06.464Z,21.04
2023-08-11T09:10:38.192Z,21.12
2023-08-11T09:12:10.858Z,20.83
2023-08-11T09:13:44.645Z,21.06
2023-08-11T09:15:16.317Z,21.35
2023-08-11T09:16:48.754Z,21.53
2023-08-11T09:18:20.437Z,21.56
2023-08-11T09:19:53.756Z,21.67
2023-08-11T09:21:26.755Z,22.11
2023-08-11T09:22:59.361Z,22.26
2023-08-11T09:24:31.069Z,22.42
2023-08-11T09:26:02.840Z,22.12
2023-08-11T09:27:34.601Z,22.03
2023-08-11T09:29:06.505Z,22.35
2023-08-11T09:30:38.245Z,22.48
2023-08-11T09:32:10.186Z,22.65
2023-08-11T09:33:42.049Z,22.34
2023-08-11T09:35:14.069Z,22.66
2023-08-11T09:36:47.782Z,22.89
2023-08-11T09:38:19.474Z,22.64
2023-08-11T09:39:51.174Z,22.77
2023-08-11T09:41:23.420Z,22.82
2023-08-11T09:42:55.139Z,22.87
2023-08-11T09:44:27.187Z,22.98
2023-08-11T09:46:03.042Z,22.88
2023-08-11T09:47:34.914Z,22.91
2023-08-11T09:49:07.348Z,23.15
2023-08-11T09:50:39.120Z,23.51
2023-08-11T09:52:12.758Z,23.20
2023-08-11T09:53:44.413Z,23.44
2023-08-11T09:55:16.038Z,23.46
2023-08-11T09:56:47.710Z,23.06
2023-08-11T09:58:20.153Z,23.56
2023-08-11T09:59:52.086Z,23.46
2023-08-11T10:01:26.204Z,23.34
2023-08-11T10:03:00.852Z,23.82
2023-08-11T10:04:35.764Z,23.83
2023-08-11T10:06:07.703Z,23.54
2023-08-11T10:07:42.738Z,23.37
2023-08-11T10:09:14.484Z,23.81
2023-08-11T10:10:52.090Z,24.02
2023-08-11T10:12:23.893Z,24.21
2023-08-11T10:13:55.659Z,24.03
2023-08-11T10:15:27.787Z,23.73
2023-08-11T10:16:59.751Z,24.13
2023-08-11T10:18:32.512Z,24.13
2023-08-11T10:20:06.290Z,24.13
2023-08-11T10:21:37.997Z,24.42
2023-08-11T10:23:11.469Z,24.43
2023-08-11T10:24:44.732Z,24.52
2023-08-11T10:26:16.548Z,24.36
2023-08-11T10:27:48.256Z,24.66
2023-08-11T10:29:19.961Z,24.35
2023-08-11T10:30:55.979Z,24.70
2023-08-11T10:32:29.701Z,24.60
2023-08-11T10:34:06.326Z,24.78
2023-08-11T10:35:48.730Z,25.09
2023-08-11T10:37:24.270Z,24.74
2023-08-11T10:39:05.099Z,24.88
2023-08-11T10:40:37.929Z,25.28
2023-08-11T10:42:11.699Z,24.80
2023-08-11T10:43:47.237Z,24.86
2023-08-11T10:45:19.925Z,25.11
2023-08-11T10:46:52.729Z,25.35
2023-08-11T10:48:24.571Z,25.30
2023-08-11T10:49:56.424Z,25.38
2023-08-11T10:51:32.305Z,25.67
2023-08-11T10:53:07.772Z,25.32
2023-08-11T10:54:49.509Z,25.83
2023-08-11T10:56:28.110Z,26.18
2023-08-11T10:58:13.113Z,26.09
2023-08-11T10:59:44.834Z,26.20
2023-08-11T11:01:16.588Z,26.07
2023-08-11T11:02:48.362Z,26.24
2023-08-11T11:04:20.815Z,26.15
2023-08-11T11:05:52.513Z,25.51
2023-08-11T11:07:24.855Z,26.14
2023-08-11T11:08:56.718Z,26.22
2023-08-11T11:10:43.428Z,26.56
2023-08-11T11:12:20.974Z,26.29
2023-08-11T11:13:55.756Z,26.44
2023-08-11T11:15:28.605Z,25.81
2023-08-11T11:17:01.005Z,26.26
2023-08-11T11:18:33.581Z,26.71
2023-08-11T11:20:06.581Z,26.53
2023-08-11T11:21:39.666Z,26.77
2023-08-11T11:23:11.635Z,27.22
2023-08-11T11:24:43.271Z,27.07
2023-08-11T11:26:21.648Z,26.67
2023-08-11T11:27:55.731Z,26.95
2023-08-11T11:29:29.401Z,26.35
2023-08-11T11:31:01.368Z,26.98
2023-08-11T11:32:33.144Z,27.22
2023-08-11T11:34:05.472Z,26.98
2023-08-11T11:35:37.491Z,26.94
2023-08-11T11:37:09.579Z,27.13
2023-08-11T11:38:41.413Z,27.40
2023-08-11T11:40:13.626Z,26.95
2023-08-11T11:41:46.731Z,26.98
2023-08-11T11:43:18.763Z,26.57
2023-08-11T11:44:51.160Z,27.24
2023-08-11T11:46:23.123Z,27.03
2023-08-11T11:47:56.635Z,26.29
2023-08-11T11:49:30.655Z,26.71
2023-08-11T11:51:04.723Z,26.57
2023-08-11T11:52:38.192Z,27.29
2023-08-11T11:54:10.177Z,27.47
2023-08-11T11:55:45.671Z,26.67
2023-08-11T11:57:18.747Z,26.51
2023-08-11T11:58:50.995Z,26.76
2023-08-11T12:00:22.875Z,27.43
2023-08-11T12:01:58.376Z,27.80
2023-08-11T12:03:30.183Z,27.17
2023-08-11T12:05:01.992Z,27.76
2023-08-11T12:06:33.754Z,27.59
2023-08-11T12:08:22.159Z,27.13
2023-08-11T12:09:54.848Z,27.10
2023-08-11T12:11:26.857Z,27.36
2023-08-11T12:13:04.656Z,27.77
2023-08-11T12:14:39.293Z,27.78
2023-08-11T12:16:11.630Z,27.90
2023-08-11T12:17:43.507Z,27.86
2023-08-11T12:19:15.853Z,28.06
2023-08-11T12:20:47.976Z,27.68
2023-08-11T12:22:19.763Z,27.99
2023-08-11T12:23:51.751Z,27.35
2023-08-11T12:25:24.409Z,28.10
2023-08-11T12:26:58.747Z,28.19
2023-08-11T12:28:32.379Z,28.17
2023-08-11T12:30:04.864Z,27.49
2023-08-11T12:31:36.592Z,27.86
2023-08-11T12:33:08.362Z,27.74
2023-08-11T12:34:40.106Z,27.29
2023-08-11T12:36:11.784Z,27.74
2023-08-11T12:37:43.437Z,26.97
2023-08-11T12:39:15.287Z,27.49
2023-08-11T12:40:47.044Z,27.69
2023-08-11T12:42:19.048Z,28.01
2023-08-11T12:43:52.420Z,28.07
2023-08-11T12:45:24.277Z,28.21
2023-08-11T12:46:55.956Z,28.49
2023-08-11T12:48:27.973Z,28.40
2023-08-11T12:49:59.756Z,28.35
2023-08-11T12:51:31.381Z,28.24
2023-08-11T12:53:03.313Z,28.46
2023-08-11T12:54:35.192Z,27.80
2023-08-11T12:56:07.013Z,28.27
2023-08-11T12:57:38.700Z,28.50
2023-08-11T12:59:12.175Z,27.87
2023-08-11T13:00:44.277Z,28.51
2023-08-11T13:02:16.034Z,28.31
2023-08-11T13:03:48.406Z,28.56
2023-08-11T13:05:20.133Z,29.00
2023-08-11T13:06:51.935Z,28.99
2023-08-11T13:08:23.938Z,28.70
2023-08-11T13:09:55.992Z,28.93
2023-08-11T13:11:27.791Z,28.77
2023-08-11T13:12:59.492Z,28.64
2023-08-11T13:14:32.548Z,28.40
2023-08-11T13:16:05.222Z,28.49
2023-08-11T13:17:37.088Z,28.63
2023-08-11T13:19:10.034Z,28.76
2023-08-11T13:20:42.813Z,29.03
2023-08-11T13:22:14.525Z,28.59
2023-08-11T13:23:46.431Z,28.23
2023-08-11T13:25:18.290Z,28.72
2023-08-11T13:26:50.200Z,28.45
2023-08-11T13:28:22.080Z,28.40
2023-08-11T13:30:02.113Z,28.66
2023-08-11T13:31:33.901Z,28.66
2023-08-11T13:33:06.202Z,28.88
2023-08-11T13:34:37.914Z,28.65
2023-08-11T13:36:10.985Z,28.74
2023-08-11T13:37:42.816Z,28.63
2023-08-11T13:39:14.554Z,28.67
2023-08-11T13:40:46.223Z,28.83
2023-08-11T13:42:18.315Z,28.66
2023-08-11T13:43:50.021Z,28.58
2023-08-11T13:45:23.058Z,28.83
2023-08-11T13:46:54.694Z,28.59
2023-08-11T13:48:28.262Z,28.94
2023-08-11T13:50:01.521Z,28.99
2023-08-11T13:51:33.723Z,29.28
2023-08-11T13:53:05.392Z,29.27
2023-08-11T13:54:37.312Z,29.31
2023-08-11T13:56:10.260Z,29.29
2023-08-11T13:57:42.022Z,29.46
2023-08-11T13:59:13.701Z,29.40
2023-08-11T14:00:48.427Z,29.42
2023-08-11T14:02:20.166Z,28.93
2023-08-11T14:03:51.845Z,28.95
2023-08-11T14:05:23.763Z,29.03
2023-08-11T14:07:00.542Z,29.33
2023-08-11T14:08:38.155Z,29.23
2023-08-11T14:10:10.288Z,29.40
2023-08-11T14:11:42.049Z,29.21
2023-08-11T14:13:14.026Z,28.87
2023-08-11T14:14:48.851Z,28.80
2023-08-11T14:16:21.985Z,29.06
2023-08-11T14:17:53.782Z,28.69
2023-08-11T14:19:25.673Z,28.41
2023-08-11T14:20:57.380Z,28.55
2023-08-11T14:22:29.086Z,28.85
2023-08-11T14:24:00.966Z,28.49
2023-08-11T14:25:33.931Z,28.81
2023-08-11T14:27:06.420Z,28.74
2023-08-11T14:28:39.407Z,28.66
2023-08-11T14:30:12.142Z,28.94
2023-08-11T14:31:45.210Z,28.75
2023-08-11T14:33:16.980Z,28.89
2023-08-11T14:34:48.696Z,28.95
2023-08-11T14:36:20.598Z,28.59
2023-08-11T14:37:52.300Z,28.57
2023-08-11T14:39:24.106Z,28.81
2023-08-11T14:40:57.116Z,28.67
2023-08-11T14:42:28.883Z,28.51
2023-08-11T14:44:06.565Z,28.35
2023-08-11T14:45:38.251Z,28.32
2023-08-11T14:47:15.196Z,28.64
2023-08-11T14:48:47.832Z,28.52
2023-08-11T14:50:19.779Z,28.32
2023-08-11T14:51:52.862Z,28.24
2023-08-11T14:53:26.825Z,28.03
2023-08-11T14:54:58.481Z,27.77
2023-08-11T14:56:30.287Z,27.75
2023-08-11T14:58:02.244Z,27.71
2023-08-11T14:59:33.957Z,28.05
2023-08-11T15:01:06.478Z,28.00
2023-08-11T15:02:41.769Z,27.99
2023-08-11T15:04:13.915Z,27.78
2023-08-11T15:05:45.681Z,27.82
2023-08-11T15:07:17.393Z,28.01
2023-08-11T15:08:49.108Z,28.02
2023-08-11T15:10:20.920Z,27.69
2023-08-11T15:11:52.634Z,27.82
2023-08-11T15:13:24.373Z,28.05
2023-08-11T15:14:56.265Z,27.95
2023-08-11T15:16:29.177Z,28.07
2023-08-11T15:18:04.676Z,28.07
2023-08-11T15:19:36.363Z,28.21
2023-08-11T15:21:08.299Z,28.08
2023-08-11T15:22:40.241Z,28.15
2023-08-11T15:24:12.035Z,27.86
2023-08-11T15:25:44.008Z,28.06
2023-08-11T15:27:17.495Z,27.98
2023-08-11T15:28:50.660Z,27.94
2023-08-11T15:30:23.834Z,27.86
2023-08-11T15:31:55.486Z,27.75
2023-08-11T15:33:28.794Z,27.99
2023-08-11T15:35:00.651Z,28.05
2023-08-11T15:36:32.374Z,28.05
2023-08-11T15:38:04.779Z,27.89
2023-08-11T15:39:37.290Z,27.98
2023-08-11T15:41:09.001Z,28.00
2023-08-11T15:42:40.647Z,27.96
2023-08-11T15:44:16.586Z,28.21
2023-08-11T15:45:48.326Z,28.24
2023-08-11T15:47:20.079Z,28.17
2023-08-11T15:48:53.715Z,28.01
2023-08-11T15:50:25.693Z,28.05
2023-08-11T15:51:57.407Z,27.97
2023-08-11T15:53:29.131Z,27.96
2023-08-11T15:55:00.952Z,28.14
2023-08-11T15:56:32.612Z,28.22
2023-08-11T15:58:04.587Z,28.04
2023-08-11T15:59:36.431Z,28.05
2023-08-11T16:01:09.261Z,28.09
2023-08-11T16:02:41.305Z,28.11
2023-08-11T16:04:14.430Z,28.14
2023-08-11T16:05:46.293Z,27.93
2023-08-11T16:07:17.928Z,28.04
2023-08-11T16:08:49.695Z,27.93
2023-08-11T16:10:21.374Z,27.93
2023-08-11T16:11:55.192Z,27.95
2023-08-11T16:13:27.112Z,27.83
2023-08-11T16:14:58.821Z,27.78
2023-08-11T16:16:30.562Z,27.53
2023-08-11T16:18:02.239Z,27.51
2023-08-11T16:19:36.020Z,27.60
2023-08-11T16:21:08.552Z,27.49
2023-08-11T16:22:40.201Z,27.49
2023-08-11T16:24:11.866Z,27.53
2023-08-11T16:25:43.598Z,27.42
2023-08-11T16:27:15.297Z,27.49
2023-08-11T16:28:47.008Z,27.57
2023-08-11T16:30:18.783Z,27.37
2023-08-11T16:31:50.557Z,27.35
2023-08-11T16:33:22.301Z,27.29
2023-08-11T16:34:55.420Z,27.20
2023-08-11T16:36:28.753Z,27.23
2023-08-11T16:38:00.500Z,27.17
2023-08-11T16:39:32.248Z,27.18
2023-08-11T16:41:04.298Z,27.18
2023-08-11T16:42:36.028Z,27.17
2023-08-11T16:44:11.907Z,27.08
2023-08-11T16:45:45.667Z,27.00
2023-08-11T16:47:17.455Z,26.94
2023-08-11T16:48:49.660Z,26.90
2023-08-11T16:50:22.762Z,26.80
2023-08-11T16:51:54.426Z,26.86
2023-08-11T16:53:26.124Z,26.74
2023-08-11T16:54:59.257Z,26.78
2023-08-11T16:56:31.235Z,26.74
2023-08-11T16:58:03.263Z,26.63
2023-08-11T16:59:35.671Z,26.67
2023-08-11T17:01:07.718Z,26.63
2023-08-11T17:02:39.604Z,26.57
2023-08-11T17:04:13.526Z,26.63
2023-08-11T17:05:46.547Z,26.62
2023-08-11T17:07:18.258Z,26.52
2023-08-11T17:08:51.509Z,26.50
2023-08-11T17:10:27.453Z,26.38
2023-08-11T17:11:59.145Z,26.45
2023-08-11T17:13:31.013Z,26.39
2023-08-11T17:15:03.532Z,26.27
2023-08-11T17:16:35.285Z,26.31
2023-08-11T17:18:07.394Z,26.31
2023-08-11T17:19:39.149Z,26.26
2023-08-11T17:21:12.252Z,26.23
2023-08-11T17:22:43.956Z,26.14
2023-08-11T17:24:15.596Z,26.15
2023-08-11T17:25:47.645Z,26.22
2023-08-11T17:27:19.350Z,26.14
2023-08-11T17:28:54.761Z,26.17
2023-08-11T17:30:26.779Z,26.05
2023-08-11T17:31:58.407Z,26.06
2023-08-11T17:33:30.200Z,26.08
2023-08-11T17:35:02.175Z,26.05
2023-08-11T17:36:35.712Z,26.03
2023-08-11T17:38:07.775Z,25.85
2023-08-11T17:39:39.778Z,25.83
2023-08-11T17:41:11.787Z,25.73
2023-08-11T17:42:49.507Z,25.74
2023-08-11T17:44:21.216Z,25.70
2023-08-11T17:45:53.185Z,25.53
2023-08-11T17:47:30.491Z,25.53
2023-08-11T17:49:02.335Z,25.56
2023-08-11T17:50:35.590Z,25.50
2023-08-11T17:52:08.886Z,25.34
2023-08-11T17:53:41.670Z,25.37
2023-08-11T17:55:14.297Z,25.33
2023-08-11T17:56:46.055Z,25.24
2023-08-11T17:58:17.892Z,25.17
2023-08-11T17:59:49.956Z,25.04
2023-08-11T18:01:24.205Z,24.97
2023-08-11T18:02:56.188Z,24.94
2023-08-11T18:04:28.016Z,24.87
2023-08-11T18:05:59.734Z,24.91
2023-08-11T18:07:32.758Z,24.79
2023-08-11T18:09:04.866Z,24.78
2023-08-11T18:10:38.821Z,24.65
2023-08-11T18:12:12.586Z,24.65
2023-08-11T18:13:44.486Z,24.72
2023-08-11T18:15:16.835Z,24.65
2023-08-11T18:16:48.857Z,24.54
2023-08-11T18:18:20.579Z,24.45
2023-08-11T18:19:52.591Z,24.30
2023-08-11T18:21:24.260Z,24.29
2023-08-11T18:22:59.269Z,24.20
2023-08-11T18:24:31.001Z,24.19
2023-08-11T18:26:02.936Z,24.21
2023-08-11T18:27:34.913Z,24.11
2023-08-11T18:29:06.862Z,24.20
2023-08-11T18:30:39.951Z,23.96
2023-08-11T18:32:11.912Z,23.99
2023-08-11T18:33:43.974Z,23.95
2023-08-11T18:35:15.905Z,24.02
2023-08-11T18:36:47.576Z,23.85
2023-08-11T18:38:21.054Z,24.01
2023-08-11T18:39:52.889Z,23.93
2023-08-11T18:41:24.756Z,23.87
2023-08-11T18:42:56.506Z,23.56
2023-08-11T18:44:28.398Z,23.42
2023-08-11T18:46:03.777Z,23.26
2023-08-11T18:47:35.741Z,23.20
2023-08-11T18:49:07.524Z,23.19
2023-08-11T18:50:39.205Z,23.15
2023-08-11T18:52:13.522Z,23.18
2023-08-11T18:53:46.914Z,23.26
2023-08-11T18:55:19.041Z,23.34
2023-08-11T18:56:50.707Z,23.33
2023-08-11T18:58:22.571Z,23.13
2023-08-11T18:59:54.264Z,23.04
2023-08-11T19:01:26.108Z,22.81
2023-08-11T19:02:58.218Z,22.70
2023-08-11T19:04:29.875Z,22.67
2023-08-11T19:06:01.826Z,22.73
2023-08-11T19:07:33.502Z,22.74
2023-08-11T19:09:08.902Z,22.72
2023-08-11T19:10:40.633Z,22.66
2023-08-11T19:12:13.070Z,22.61
2023-08-11T19:13:47.360Z,22.50
2023-08-11T19:15:19.568Z,22.36
2023-08-11T19:16:51.205Z,22.42
2023-08-11T19:18:23.927Z,22.28
2023-08-11T19:19:55.687Z,22.32
2023-08-11T19:21:27.728Z,22.33
2023-08-11T19:22:59.716Z,22.41
2023-08-11T19:24:32.885Z,22.29
2023-08-11T19:26:05.493Z,22.19
2023-08-11T19:27:37.639Z,22.24
2023-08-11T19:29:09.440Z,22.33
2023-08-11T19:30:41.191Z,22.08
2023-08-11T19:32:13.367Z,22.02
2023-08-11T19:33:45.395Z,21.98
2023-08-11T19:35:17.233Z,21.87
2023-08-11T19:36:49.061Z,21.89
2023-08-11T19:38:20.757Z,22.02
2023-08-11T19:39:53.900Z,22.11
2023-08-11T19:41:26.056Z,22.00
2023-08-11T19:42:57.803Z,21.85
2023-08-11T19:44:30.162Z,21.70
2023-08-11T19:46:02.352Z,21.69
2023-08-11T19:47:34.265Z,21.75
2023-08-11T19:49:06.504Z,21.63
2023-08-11T19:50:38.193Z,21.59
2023-08-11T19:52:10.331Z,21.48